Time;durP1;ratioP1;P1;durP2;ratioP2;P2;SDS_P1;SDS_P2;PMS_P1;PMS_P2;Temp;Humidity;BMP_temperature;BMP_pressure;BME280_temperature;BME280_humidity;BME280_pressure;Samples;Min_cycle;Max_cycle;Signal;HPM_P1;HPM_P2
2023/07/14 00:00:24;;;;;;;2.55;1.17;;;18.30;54.30;;;;;;873605;161;27399;-75
2023/07/14 00:02:51;;;;;;;1.40;1.30;;;18.20;54.40;;;;;;873341;161;27447;-76
2023/07/14 00:05:18;;;;;;;1.57;1.43;;;18.10;54.60;;;;;;873323;163;27810;-76
2023/07/14 00:07:44;;;;;;;1.97;1.27;;;18.10;54.20;;;;;;873488;162;27412;-76
2023/07/14 00:10:14;;;;;;;2.47;1.77;;;18.00;54.80;;;;;;873055;162;27447;-76
2023/07/14 00:12:41;;;;;;;3.53;1.53;;;18.00;54.90;;;;;;873586;161;27455;-75
2023/07/14 00:15:07;;;;;;;1.60;1.50;;;17.90;54.90;;;;;;873966;162;27470;-75
2023/07/14 00:17:34;;;;;;;1.55;1.42;;;17.90;55.10;;;;;;873412;162;27599;-76
2023/07/14 00:20:00;;;;;;;2.70;1.53;;;17.80;55.20;;;;;;873035;163;27428;-76
2023/07/14 00:22:27;;;;;;;2.40;1.92;;;17.80;55.30;;;;;;873202;162;27427;-76
2023/07/14 00:24:53;;;;;;;1.80;1.37;;;17.70;55.50;;;;;;873976;163;27463;-76
2023/07/14 00:27:20;;;;;;;1.60;1.50;;;17.60;55.60;;;;;;873517;163;27427;-76
2023/07/14 00:29:47;;;;;;;2.23;1.47;;;17.60;55.80;;;;;;873168;163;27412;-75
2023/07/14 00:32:19;;;;;;;1.50;1.40;;;17.50;56.00;;;;;;873363;163;27412;-75
2023/07/14 00:34:45;;;;;;;2.47;1.35;;;17.50;56.40;;;;;;873453;163;27959;-75
2023/07/14 00:37:12;;;;;;;1.40;1.30;;;17.50;56.40;;;;;;873571;161;27450;-75
2023/07/14 00:39:39;;;;;;;1.73;1.47;;;17.40;56.50;;;;;;873350;163;27478;-75
2023/07/14 00:42:07;;;;;;;1.40;1.30;;;17.40;56.60;;;;;;873053;163;27478;-75
2023/07/14 00:44:32;;;;;;;2.73;1.50;;;17.30;56.80;;;;;;873009;161;27557;-75
2023/07/14 00:46:58;;;;;;;1.83;1.40;;;17.30;56.80;;;;;;873223;161;27462;-75
2023/07/14 00:49:36;;;;;;;1.60;1.50;;;17.30;56.90;;;;;;873674;161;27438;-75
2023/07/14 00:52:21;;;;;;;3.13;1.60;;;17.20;56.90;;;;;;873549;161;27505;-75
2023/07/14 00:54:49;;;;;;;1.87;1.40;;;17.20;56.90;;;;;;872962;163;27450;-75
2023/07/14 00:57:17;;;;;;;1.77;1.30;;;17.10;56.90;;;;;;873061;161;27415;-75
2023/07/14 00:59:43;;;;;;;1.30;1.30;;;17.00;57.00;;;;;;873158;161;27448;-75
2023/07/14 01:02:21;;;;;;;2.53;1.90;;;17.00;57.20;;;;;;876167;162;27386;-75
2023/07/14 01:04:48;;;;;;;1.77;1.47;;;16.90;57.40;;;;;;880303;159;27363;-75
2023/07/14 01:07:15;;;;;;;2.77;1.70;;;16.90;57.60;;;;;;873439;161;27443;-75
2023/07/14 01:09:41;;;;;;;2.13;1.93;;;16.80;57.80;;;;;;873457;161;27496;-75
2023/07/14 01:12:08;;;;;;;2.87;1.67;;;16.80;58.10;;;;;;873330;161;27444;-75
2023/07/14 01:14:37;;;;;;;2.47;1.70;;;16.80;58.20;;;;;;873120;162;27439;-75
2023/07/14 01:17:04;;;;;;;1.77;1.60;;;16.80;58.30;;;;;;873307;161;27421;-75
2023/07/14 01:19:52;;;;;;;1.80;1.63;;;16.70;58.50;;;;;;873247;161;27418;-75
2023/07/14 01:22:18;;;;;;;2.03;1.83;;;16.80;58.80;;;;;;872704;163;27544;-76
2023/07/14 01:24:45;;;;;;;1.53;1.43;;;16.80;58.80;;;;;;873223;163;27567;-76
2023/07/14 01:27:12;;;;;;;4.27;1.70;;;16.80;58.90;;;;;;872667;163;27400;-76
2023/07/14 01:29:39;;;;;;;2.77;1.47;;;16.80;59.00;;;;;;874385;163;27396;-76
2023/07/14 01:32:05;;;;;;;2.80;1.93;;;16.80;59.10;;;;;;874396;160;27439;-76
2023/07/14 01:34:31;;;;;;;1.77;1.47;;;16.90;59.10;;;;;;872687;162;27510;-76
2023/07/14 01:36:58;;;;;;;2.22;1.60;;;16.90;59.20;;;;;;874463;160;27474;-76
2023/07/14 01:39:28;;;;;;;1.72;1.62;;;17.00;59.40;;;;;;874103;160;27400;-76
2023/07/14 01:41:54;;;;;;;2.10;1.80;;;17.00;59.50;;;;;;874436;163;27521;-76
2023/07/14 01:44:21;;;;;;;2.77;1.70;;;17.10;59.60;;;;;;873803;160;27489;-76
2023/07/14 01:46:47;;;;;;;1.40;1.30;;;17.10;59.60;;;;;;874191;163;27546;-76
2023/07/14 01:49:20;;;;;;;2.07;1.60;;;17.20;59.60;;;;;;874210;161;27414;-76
2023/07/14 01:51:48;;;;;;;1.90;1.80;;;17.20;59.60;;;;;;874181;163;27435;-76
2023/07/14 01:54:22;;;;;;;1.60;1.50;;;17.30;59.50;;;;;;874219;163;27419;-76
2023/07/14 01:56:48;;;;;;;1.42;1.37;;;17.30;59.40;;;;;;873905;160;27454;-76
2023/07/14 01:59:21;;;;;;;1.77;1.42;;;17.40;59.50;;;;;;874188;163;27642;-76
2023/07/14 02:01:47;;;;;;;1.83;1.50;;;17.40;59.50;;;;;;874184;163;27544;-76
2023/07/14 02:04:26;;;;;;;1.95;1.65;;;17.40;59.50;;;;;;874563;163;27439;-76
2023/07/14 02:06:52;;;;;;;3.65;1.60;;;17.50;59.50;;;;;;872135;160;27458;-76
2023/07/14 02:09:19;;;;;;;1.87;1.77;;;17.50;59.40;;;;;;874224;160;27526;-76
2023/07/14 02:11:45;;;;;;;2.62;1.67;;;17.60;59.40;;;;;;872985;163;27515;-76
2023/07/14 02:14:12;;;;;;;1.60;1.50;;;17.60;59.50;;;;;;874455;163;27435;-76
2023/07/14 02:16:39;;;;;;;2.55;1.90;;;17.70;59.80;;;;;;874368;163;27469;-76
2023/07/14 02:19:08;;;;;;;1.70;1.60;;;17.70;59.40;;;;;;874602;160;27428;-71
2023/07/14 02:21:32;;;;;;;2.30;1.42;;;17.70;59.40;;;;;;873428;163;27411;-74
2023/07/14 02:23:59;;;;;;;1.67;1.57;;;17.80;59.40;;;;;;874205;163;27423;-74
2023/07/14 02:26:25;;;;;;;3.10;1.90;;;17.80;59.70;;;;;;874226;163;27451;-74
2023/07/14 02:28:51;;;;;;;2.45;1.80;;;17.80;59.50;;;;;;873803;162;27494;-74
2023/07/14 02:31:30;;;;;;;2.67;2.10;;;17.80;59.40;;;;;;874443;163;27431;-74
2023/07/14 02:33:57;;;;;;;1.70;1.60;;;17.90;59.40;;;;;;874231;163;27482;-74
2023/07/14 02:36:35;;;;;;;2.60;2.02;;;17.90;59.30;;;;;;874789;160;27818;-74
2023/07/14 02:39:03;;;;;;;2.17;1.57;;;17.90;59.30;;;;;;873574;160;27541;-74
2023/07/14 02:41:29;;;;;;;3.67;2.00;;;17.90;59.30;;;;;;874472;163;27386;-74
2023/07/14 02:43:55;;;;;;;1.80;1.70;;;18.00;59.40;;;;;;873970;160;27580;-72
2023/07/14 02:46:22;;;;;;;2.30;2.05;;;18.00;59.40;;;;;;873551;160;27408;-71
2023/07/14 02:48:48;;;;;;;1.90;1.80;;;18.00;59.40;;;;;;872474;161;27440;-71
2023/07/14 02:51:15;;;;;;;1.92;1.72;;;18.00;59.40;;;;;;874557;163;27481;-71
2023/07/14 02:53:42;;;;;;;2.20;1.77;;;18.00;59.50;;;;;;874196;160;27420;-71
2023/07/14 02:56:08;;;;;;;2.40;1.97;;;18.00;59.50;;;;;;874338;160;27509;-72
2023/07/14 02:58:36;;;;;;;2.53;2.07;;;18.00;59.60;;;;;;874652;163;27478;-71
2023/07/14 03:01:01;;;;;;;2.08;1.92;;;18.00;59.60;;;;;;873803;163;27921;-72
2023/07/14 03:03:28;;;;;;;2.25;2.05;;;18.00;59.70;;;;;;873764;160;27514;-71
2023/07/14 03:05:55;;;;;;;2.15;1.75;;;18.00;59.70;;;;;;874472;160;27426;-72
2023/07/14 03:08:21;;;;;;;1.72;1.42;;;18.00;59.70;;;;;;874267;162;27501;-72
2023/07/14 03:10:48;;;;;;;2.05;1.55;;;18.00;59.70;;;;;;874210;163;27438;-71
2023/07/14 03:13:14;;;;;;;3.05;2.00;;;18.00;59.80;;;;;;874261;160;27450;-71
2023/07/14 03:15:41;;;;;;;1.77;1.63;;;18.00;59.80;;;;;;874096;161;27506;-72
2023/07/14 03:18:07;;;;;;;2.10;1.90;;;18.00;59.90;;;;;;873949;162;27422;-72
2023/07/14 03:20:34;;;;;;;1.60;1.50;;;18.00;60.00;;;;;;874494;163;27497;-72
2023/07/14 03:23:01;;;;;;;1.60;1.50;;;18.00;60.00;;;;;;874650;161;27466;-71
2023/07/14 03:25:27;;;;;;;1.67;1.57;;;18.00;60.10;;;;;;874196;163;27851;-72
2023/07/14 03:27:54;;;;;;;2.00;1.77;;;17.90;60.10;;;;;;874120;160;27482;-72
2023/07/14 03:30:21;;;;;;;2.35;2.15;;;17.90;60.30;;;;;;874479;160;27465;-71
2023/07/14 03:32:50;;;;;;;3.50;2.40;;;17.90;60.30;;;;;;874329;160;27469;-72
2023/07/14 03:35:14;;;;;;;2.10;1.65;;;17.90;60.40;;;;;;874523;162;27494;-72
2023/07/14 03:37:41;;;;;;;3.30;2.17;;;18.00;60.60;;;;;;874424;161;27476;-71
2023/07/14 03:40:07;;;;;;;2.13;1.97;;;18.00;60.70;;;;;;874277;162;27435;-72
2023/07/14 03:42:34;;;;;;;2.08;1.95;;;18.00;60.70;;;;;;874587;163;27435;-71
2023/07/14 03:45:00;;;;;;;2.30;2.10;;;18.00;60.70;;;;;;874217;163;27450;-72
2023/07/14 03:47:27;;;;;;;2.87;2.37;;;18.00;60.70;;;;;;874226;161;27421;-72
2023/07/14 03:49:53;;;;;;;2.50;1.93;;;18.00;60.90;;;;;;874480;160;27427;-71
2023/07/14 03:52:20;;;;;;;1.97;1.87;;;18.00;60.90;;;;;;874303;161;27448;-71
2023/07/14 03:54:46;;;;;;;2.12;1.70;;;18.10;60.90;;;;;;874372;163;27447;-72
2023/07/14 03:57:13;;;;;;;2.02;1.82;;;18.10;60.90;;;;;;874278;163;27454;-72
2023/07/14 03:59:40;;;;;;;2.17;1.82;;;18.10;60.90;;;;;;875027;163;27443;-72
2023/07/14 04:02:06;;;;;;;3.25;1.85;;;18.20;60.90;;;;;;872978;163;27424;-72
2023/07/14 04:04:33;;;;;;;2.55;1.95;;;18.20;61.00;;;;;;874107;163;27455;-71
2023/07/14 04:06:59;;;;;;;1.82;1.72;;;18.30;61.00;;;;;;874852;160;27499;-71
2023/07/14 04:09:26;;;;;;;2.90;2.52;;;18.30;61.00;;;;;;874731;161;27384;-71
2023/07/14 04:11:53;;;;;;;2.80;1.80;;;18.30;60.90;;;;;;874494;161;27431;-71
2023/07/14 04:14:19;;;;;;;2.65;1.90;;;18.40;61.00;;;;;;874253;161;27517;-71
2023/07/14 04:16:46;;;;;;;2.42;2.20;;;18.50;61.00;;;;;;875153;161;27451;-72
2023/07/14 04:19:12;;;;;;;2.95;2.15;;;18.50;60.90;;;;;;874332;163;27547;-71
2023/07/14 04:21:39;;;;;;;2.10;1.90;;;18.60;60.90;;;;;;874895;160;27423;-72
2023/07/14 04:24:05;;;;;;;1.98;1.75;;;18.70;61.00;;;;;;874256;160;27477;-71
2023/07/14 04:26:32;;;;;;;4.12;2.02;;;18.70;60.90;;;;;;874286;161;27531;-71
2023/07/14 04:28:59;;;;;;;2.05;1.90;;;18.80;60.90;;;;;;872337;160;27566;-72
2023/07/14 04:31:28;;;;;;;1.85;1.75;;;18.90;60.90;;;;;;871883;161;27447;-72
2023/07/14 04:33:52;;;;;;;2.02;1.92;;;19.00;60.80;;;;;;872803;162;27581;-71
2023/07/14 04:36:18;;;;;;;2.75;1.98;;;19.10;60.70;;;;;;873809;163;27454;-71
2023/07/14 04:39:03;;;;;;;2.72;2.27;;;19.20;60.60;;;;;;875103;160;27443;-71
2023/07/14 04:41:31;;;;;;;2.70;1.65;;;19.30;60.60;;;;;;874396;161;27451;-72
2023/07/14 04:43:57;;;;;;;3.22;1.60;;;19.40;60.30;;;;;;874113;162;27462;-72
2023/07/14 04:46:23;;;;;;;2.20;2.00;;;19.50;60.30;;;;;;874432;162;27408;-72
2023/07/14 04:48:50;;;;;;;4.37;2.42;;;19.60;60.20;;;;;;874805;160;27423;-72
2023/07/14 04:51:16;;;;;;;4.00;2.22;;;19.70;60.20;;;;;;874534;161;27459;-71
2023/07/14 04:53:44;;;;;;;2.15;1.85;;;19.80;60.00;;;;;;874867;160;27507;-72
2023/07/14 04:56:10;;;;;;;1.80;1.70;;;19.90;60.00;;;;;;874674;160;27512;-71
2023/07/14 04:58:36;;;;;;;2.85;1.87;;;20.00;59.90;;;;;;874439;160;27402;-72
2023/07/14 05:01:03;;;;;;;2.00;1.90;;;20.10;59.90;;;;;;873729;160;27407;-72
2023/07/14 05:03:29;;;;;;;3.17;2.00;;;20.20;59.80;;;;;;874743;162;27439;-71
2023/07/14 05:05:56;;;;;;;2.47;1.77;;;20.40;60.00;;;;;;874684;163;27411;-72
2023/07/14 05:08:22;;;;;;;2.40;1.98;;;20.60;60.20;;;;;;874323;163;27512;-72
2023/07/14 05:10:49;;;;;;;3.15;1.98;;;20.90;60.40;;;;;;874597;160;27461;-71
2023/07/14 05:13:16;;;;;;;2.15;1.95;;;21.30;60.80;;;;;;874709;162;27422;-71
2023/07/14 05:15:45;;;;;;;1.92;1.80;;;21.80;61.00;;;;;;874472;163;27540;-72
2023/07/14 05:18:09;;;;;;;1.98;1.52;;;22.40;61.10;;;;;;873480;163;27761;-72
2023/07/14 05:20:36;;;;;;;1.87;1.70;;;23.00;60.30;;;;;;874184;162;27420;-71
2023/07/14 05:23:03;;;;;;;1.75;1.27;;;23.60;59.50;;;;;;874256;163;27831;-72
2023/07/14 05:25:29;;;;;;;1.57;1.47;;;24.30;58.30;;;;;;874762;160;27466;-72
2023/07/14 05:27:55;;;;;;;1.87;1.40;;;24.80;57.00;;;;;;874267;160;27416;-72
2023/07/14 05:30:22;;;;;;;6.20;1.60;;;25.10;55.70;;;;;;874299;162;27433;-72
2023/07/14 05:32:49;;;;;;;2.75;1.30;;;25.40;54.80;;;;;;874857;160;27409;-72
2023/07/14 05:35:15;;;;;;;6.05;1.52;;;25.50;54.10;;;;;;873725;162;27463;-72
2023/07/14 05:37:42;;;;;;;3.42;1.45;;;25.50;53.70;;;;;;874573;161;27937;-72
2023/07/14 05:40:10;;;;;;;1.20;1.10;;;25.50;53.30;;;;;;874123;162;27424;-72
2023/07/14 05:42:35;;;;;;;3.50;1.62;;;25.50;53.20;;;;;;874114;160;27540;-72
2023/07/14 05:45:03;;;;;;;3.33;1.55;;;25.50;53.00;;;;;;874504;161;27432;-72
2023/07/14 05:47:28;;;;;;;1.20;1.15;;;25.50;52.90;;;;;;874368;161;27445;-72
2023/07/14 05:49:55;;;;;;;1.57;1.30;;;25.50;52.60;;;;;;874322;161;27429;-72
2023/07/14 05:52:22;;;;;;;3.33;1.40;;;25.50;52.50;;;;;;874041;162;27389;-72
2023/07/14 05:54:48;;;;;;;3.25;1.40;;;25.40;52.50;;;;;;874784;160;27423;-72
2023/07/14 05:57:14;;;;;;;1.50;1.30;;;25.40;52.40;;;;;;874691;162;27518;-71
2023/07/14 05:59:41;;;;;;;3.12;1.60;;;25.40;52.30;;;;;;874729;163;27572;-72
2023/07/14 06:02:13;;;;;;;1.40;1.30;;;25.30;52.30;;;;;;874340;163;27431;-71
2023/07/14 06:04:37;;;;;;;3.50;1.42;;;25.30;52.20;;;;;;874613;163;27428;-72
2023/07/14 06:07:04;;;;;;;1.52;1.42;;;25.20;52.20;;;;;;874196;161;27460;-72
2023/07/14 06:09:34;;;;;;;2.10;1.10;;;25.20;52.30;;;;;;874434;162;27460;-72
2023/07/14 06:11:59;;;;;;;1.30;1.10;;;25.30;52.50;;;;;;874484;161;27769;-71
2023/07/14 06:14:26;;;;;;;1.60;1.02;;;25.40;52.60;;;;;;874463;161;27518;-72
2023/07/14 06:16:53;;;;;;;1.20;1.12;;;25.60;53.70;;;;;;874293;162;27443;-72
2023/07/14 06:19:19;;;;;;;1.80;1.37;;;26.00;53.40;;;;;;873851;160;27440;-71
2023/07/14 06:21:46;;;;;;;1.25;1.15;;;26.40;53.20;;;;;;874172;160;27496;-72
2023/07/14 06:24:14;;;;;;;2.10;1.42;;;26.80;52.70;;;;;;874206;163;27435;-73
2023/07/14 06:26:39;;;;;;;1.80;1.10;;;27.20;52.40;;;;;;873933;163;27444;-72
2023/07/14 06:29:06;;;;;;;1.70;1.60;;;27.70;51.90;;;;;;874348;162;27447;-72
2023/07/14 06:31:32;;;;;;;1.32;1.22;;;28.10;51.60;;;;;;874478;160;27456;-72
2023/07/14 06:33:59;;;;;;;1.70;1.22;;;28.50;51.30;;;;;;874903;160;27419;-72
2023/07/14 06:36:25;;;;;;;0.93;0.90;;;29.00;51.00;;;;;;874572;160;27396;-72
2023/07/14 06:38:52;;;;;;;1.52;1.25;;;29.50;50.70;;;;;;874451;162;27454;-76
2023/07/14 06:41:18;;;;;;;3.10;1.50;;;30.10;50.30;;;;;;874740;162;27410;-76
2023/07/14 06:43:45;;;;;;;3.50;1.25;;;30.60;49.40;;;;;;874025;162;27510;-76
2023/07/14 06:46:12;;;;;;;2.62;1.52;;;31.10;48.30;;;;;;874502;160;27514;-76
2023/07/14 06:48:38;;;;;;;1.67;1.17;;;31.50;47.30;;;;;;874094;161;27448;-76
2023/07/14 06:51:05;;;;;;;1.40;1.20;;;31.70;46.30;;;;;;869624;161;27444;-76
2023/07/14 06:53:31;;;;;;;1.42;1.32;;;31.80;45.20;;;;;;873387;161;27527;-76
2023/07/14 06:55:58;;;;;;;2.25;1.25;;;31.90;44.70;;;;;;873139;161;27566;-76
2023/07/14 06:58:25;;;;;;;1.67;1.40;;;31.90;44.40;;;;;;872797;163;27490;-76
2023/07/14 07:00:51;;;;;;;1.90;1.40;;;31.90;44.60;;;;;;873178;161;27448;-76
2023/07/14 07:03:18;;;;;;;1.10;1.02;;;31.90;44.90;;;;;;873432;161;27425;-76
2023/07/14 07:05:44;;;;;;;2.40;1.57;;;32.10;45.00;;;;;;874073;160;27521;-76
2023/07/14 07:08:11;;;;;;;3.15;1.22;;;32.30;44.70;;;;;;874039;161;27526;-76
2023/07/14 07:10:38;;;;;;;1.60;1.47;;;32.50;44.30;;;;;;874441;161;27452;-77
2023/07/14 07:13:04;;;;;;;2.70;1.30;;;32.70;43.80;;;;;;874603;163;27550;-77
2023/07/14 07:15:31;;;;;;;1.27;0.90;;;32.80;43.60;;;;;;874073;163;27436;-77
2023/07/14 07:17:57;;;;;;;2.75;1.45;;;33.00;43.50;;;;;;873345;163;27436;-77
2023/07/14 07:20:24;;;;;;;2.75;1.35;;;33.20;43.70;;;;;;873373;161;27441;-77
2023/07/14 07:22:50;;;;;;;2.75;1.55;;;33.60;43.80;;;;;;874203;163;27451;-77
2023/07/14 07:25:17;;;;;;;2.25;1.45;;;34.00;43.40;;;;;;873282;160;27471;-77
2023/07/14 07:27:44;;;;;;;1.47;1.20;;;34.40;42.90;;;;;;873361;160;26365;-77
2023/07/14 07:30:10;;;;;;;1.60;1.50;;;34.70;41.90;;;;;;873279;160;27510;-77
2023/07/14 07:32:37;;;;;;;2.12;1.30;;;35.10;41.30;;;;;;873760;160;26382;-77
2023/07/14 07:35:03;;;;;;;2.42;1.40;;;35.30;40.80;;;;;;873286;160;27496;-78
2023/07/14 07:37:32;;;;;;;3.40;1.30;;;35.60;40.80;;;;;;873005;161;26336;-78
2023/07/14 07:39:57;;;;;;;3.65;1.50;;;36.00;40.70;;;;;;873201;162;26369;-78
2023/07/14 07:42:23;;;;;;;1.70;1.17;;;36.50;40.30;;;;;;873390;162;28058;-78
2023/07/14 07:44:50;;;;;;;4.50;1.40;;;37.00;40.10;;;;;;872788;161;26326;-78
2023/07/14 07:47:16;;;;;;;2.40;1.07;;;37.60;39.40;;;;;;872967;161;26334;-78
2023/07/14 07:49:43;;;;;;;2.87;1.27;;;38.30;38.80;;;;;;873850;159;26354;-78
2023/07/14 07:52:11;;;;;;;5.25;1.40;;;38.90;38.40;;;;;;872615;161;26760;-78
2023/07/14 07:54:36;;;;;;;3.00;1.20;;;39.60;37.60;;;;;;873432;161;26290;-78
2023/07/14 07:57:03;;;;;;;1.80;1.20;;;40.30;37.00;;;;;;872805;162;26326;-79
2023/07/14 07:59:30;;;;;;;2.67;1.10;;;40.90;36.20;;;;;;873190;161;26405;-78
2023/07/14 08:01:56;;;;;;;1.85;1.00;;;41.50;35.40;;;;;;873559;162;26482;-78
2023/07/14 08:04:22;;;;;;;1.42;1.30;;;42.10;34.70;;;;;;873041;162;26419;-79
2023/07/14 08:06:49;;;;;;;4.35;1.32;;;42.60;34.20;;;;;;872294;161;26338;-76
2023/07/14 08:09:16;;;;;;;1.45;1.05;;;43.20;33.70;;;;;;873267;163;26463;-76
2023/07/14 08:11:42;;;;;;;3.45;1.20;;;43.80;33.10;;;;;;872928;161;26346;-76
2023/07/14 08:14:10;;;;;;;4.17;1.25;;;44.30;32.20;;;;;;873201;161;26411;-76
2023/07/14 08:16:35;;;;;;;4.33;1.25;;;44.80;31.60;;;;;;872688;163;26386;-76
2023/07/14 08:19:03;;;;;;;0.93;0.93;;;45.20;30.80;;;;;;873746;163;26418;-76
2023/07/14 08:21:30;;;;;;;1.30;1.20;;;45.70;30.10;;;;;;873341;161;26354;-76
2023/07/14 08:23:55;;;;;;;3.70;1.50;;;46.00;29.60;;;;;;872967;161;26323;-76
2023/07/14 08:26:22;;;;;;;2.67;1.10;;;46.20;29.30;;;;;;873149;161;26349;-76
2023/07/14 08:28:48;;;;;;;1.65;1.20;;;46.40;28.90;;;;;;872742;161;26346;-76
2023/07/14 08:31:17;;;;;;;2.55;1.12;;;46.50;28.60;;;;;;872784;161;26346;-76
2023/07/14 08:33:44;;;;;;;1.95;0.75;;;46.60;28.60;;;;;;873387;161;26492;-76
2023/07/14 08:36:11;;;;;;;3.15;1.02;;;46.80;28.30;;;;;;872577;161;26378;-76
2023/07/14 08:38:36;;;;;;;2.25;0.98;;;47.10;27.70;;;;;;872935;163;26340;-76
2023/07/14 08:41:11;;;;;;;1.32;0.72;;;47.00;27.40;;;;;;873449;163;26295;-77
2023/07/14 08:43:59;;;;;;;2.47;1.07;;;46.90;27.00;;;;;;873653;161;26357;-77
2023/07/14 08:46:32;;;;;;;1.50;0.95;;;46.70;26.80;;;;;;872468;163;26439;-77
2023/07/14 08:48:58;;;;;;;1.30;1.20;;;46.60;26.90;;;;;;872014;161;26469;-77
2023/07/14 08:51:37;;;;;;;1.45;1.12;;;46.30;26.80;;;;;;869793;162;26350;-77
2023/07/14 08:54:03;;;;;;;0.98;0.98;;;46.30;26.80;;;;;;871747;161;26457;-77
2023/07/14 08:56:30;;;;;;;1.62;1.10;;;46.20;26.80;;;;;;872118;161;26330;-77
2023/07/14 08:58:57;;;;;;;1.45;0.88;;;46.20;26.60;;;;;;871879;161;26434;-77
2023/07/14 09:01:35;;;;;;;2.35;0.95;;;46.30;26.60;;;;;;872703;162;26322;-77
2023/07/14 09:04:03;;;;;;;1.40;0.80;;;46.30;26.60;;;;;;871662;161;26358;-79
2023/07/14 09:06:31;;;;;;;1.02;0.95;;;46.50;26.60;;;;;;872685;162;26295;-79
2023/07/14 09:08:57;;;;;;;1.50;0.85;;;46.60;26.30;;;;;;872091;162;26317;-79
2023/07/14 09:11:30;;;;;;;2.15;1.25;;;46.80;26.10;;;;;;872215;162;26326;-79
2023/07/14 09:14:18;;;;;;;1.75;0.90;;;47.00;26.00;;;;;;872313;161;26514;-79
2023/07/14 09:16:50;;;;;;;1.50;0.95;;;47.10;25.80;;;;;;871718;163;26370;-79
2023/07/14 09:19:22;;;;;;;1.35;0.82;;;47.40;25.80;;;;;;864371;162;26370;-79
2023/07/14 09:21:49;;;;;;;3.27;1.17;;;47.40;25.40;;;;;;871307;163;26294;-79
2023/07/14 09:24:34;;;;;;;3.98;1.07;;;47.50;25.20;;;;;;869159;162;26369;-79
2023/07/14 09:27:00;;;;;;;2.30;1.00;;;47.40;25.00;;;;;;870307;164;26330;-79
2023/07/14 09:29:36;;;;;;;1.42;0.90;;;47.20;25.00;;;;;;875108;161;26342;-79
2023/07/14 09:32:11;;;;;;;3.55;1.07;;;47.00;24.70;;;;;;877193;161;26261;-79
2023/07/14 09:34:38;;;;;;;1.42;1.17;;;46.70;24.80;;;;;;877187;161;26470;-78
2023/07/14 09:37:16;;;;;;;1.37;1.27;;;46.40;24.80;;;;;;876611;162;26389;-78
2023/07/14 09:39:43;;;;;;;1.57;0.93;;;46.10;24.90;;;;;;873060;162;26381;-78
2023/07/14 09:42:18;;;;;;;1.17;1.00;;;45.80;24.90;;;;;;871309;163;26329;-78
2023/07/14 09:44:45;;;;;;;1.40;0.90;;;45.60;25.00;;;;;;866200;161;26459;-78
2023/07/14 09:47:11;;;;;;;1.37;0.90;;;45.40;25.00;;;;;;872438;163;26344;-78
2023/07/14 09:49:44;;;;;;;2.17;1.25;;;45.10;25.10;;;;;;871999;161;26326;-78
2023/07/14 09:52:15;;;;;;;1.07;0.95;;;44.90;24.80;;;;;;870822;161;26357;-78
2023/07/14 09:54:42;;;;;;;2.42;1.12;;;44.50;24.80;;;;;;872098;161;26330;-78
2023/07/14 09:57:09;;;;;;;2.92;0.98;;;44.10;24.80;;;;;;873277;163;26350;-78
2023/07/14 09:59:36;;;;;;;1.15;1.00;;;43.70;25.00;;;;;;873441;161;26325;-78
2023/07/14 10:02:02;;;;;;;1.10;0.70;;;43.20;25.00;;;;;;872236;163;27519;-78
2023/07/14 10:04:28;;;;;;;2.30;1.00;;;42.80;25.00;;;;;;873507;161;26357;-78
2023/07/14 10:06:55;;;;;;;1.27;1.17;;;42.30;25.10;;;;;;872701;163;26315;-78
2023/07/14 10:09:23;;;;;;;1.50;0.75;;;41.90;25.30;;;;;;869590;162;26322;-78
2023/07/14 10:11:48;;;;;;;5.83;1.45;;;41.60;25.50;;;;;;873422;162;26420;-78
2023/07/14 10:14:19;;;;;;;1.85;1.05;;;41.20;25.70;;;;;;873833;161;27534;-78
2023/07/14 10:16:44;;;;;;;1.85;1.20;;;40.90;25.90;;;;;;872939;162;26350;-78
2023/07/14 10:19:14;;;;;;;2.85;1.00;;;40.60;26.60;;;;;;873634;162;27356;-78
2023/07/14 10:21:40;;;;;;;2.95;1.35;;;40.40;26.20;;;;;;873503;162;26417;-78
2023/07/14 10:24:17;;;;;;;1.42;0.98;;;40.10;26.30;;;;;;871077;161;26357;-78
2023/07/14 10:26:42;;;;;;;1.47;1.30;;;40.00;26.30;;;;;;873586;162;26384;-79
2023/07/14 10:29:15;;;;;;;1.15;0.85;;;39.90;26.40;;;;;;873161;161;26413;-79
2023/07/14 10:31:47;;;;;;;1.82;1.02;;;39.70;26.30;;;;;;871981;161;27394;-79
2023/07/14 10:34:28;;;;;;;1.12;1.00;;;39.50;26.40;;;;;;871898;161;26496;-80
2023/07/14 10:36:55;;;;;;;1.67;0.95;;;39.40;26.50;;;;;;871157;162;26358;-79
2023/07/14 10:39:35;;;;;;;2.05;1.35;;;39.20;26.50;;;;;;871002;161;26276;-80
2023/07/14 10:42:00;;;;;;;1.60;1.10;;;38.90;26.50;;;;;;871096;162;26326;-78
2023/07/14 10:44:36;;;;;;;3.67;1.37;;;38.80;26.70;;;;;;872061;161;26451;-79
2023/07/14 10:47:02;;;;;;;3.12;1.10;;;38.50;26.70;;;;;;871158;161;26471;-79
2023/07/14 10:49:29;;;;;;;2.60;1.05;;;38.30;27.00;;;;;;871491;163;26323;-79
2023/07/14 10:52:03;;;;;;;1.27;1.17;;;38.10;27.30;;;;;;870988;162;27511;-79
2023/07/14 10:54:47;;;;;;;1.47;1.20;;;38.00;27.40;;;;;;870852;161;27531;-79
2023/07/14 10:57:13;;;;;;;2.45;1.20;;;38.00;27.70;;;;;;871523;162;26346;-79
2023/07/14 10:59:46;;;;;;;1.15;0.95;;;37.90;27.60;;;;;;870453;163;26359;-79
2023/07/14 11:02:15;;;;;;;3.50;1.40;;;37.80;27.70;;;;;;871429;162;27531;-79
2023/07/14 11:04:42;;;;;;;1.02;1.00;;;37.70;27.70;;;;;;871686;161;26380;-79
2023/07/14 11:07:09;;;;;;;3.75;1.17;;;37.60;27.60;;;;;;871759;163;26377;-79
2023/07/14 11:09:35;;;;;;;2.02;1.40;;;37.60;27.70;;;;;;870712;161;26330;-78
2023/07/14 11:12:30;;;;;;;1.35;1.22;;;37.50;27.70;;;;;;871793;162;27433;-79
2023/07/14 11:14:56;;;;;;;2.37;1.40;;;37.20;27.70;;;;;;876253;161;27801;-79
2023/07/14 11:17:35;;;;;;;0.90;0.90;;;37.10;27.80;;;;;;871520;161;26338;-78
2023/07/14 11:20:23;;;;;;;0.90;0.90;;;36.90;28.00;;;;;;871508;161;27558;-78
2023/07/14 11:22:49;;;;;;;1.10;1.00;;;36.70;28.10;;;;;;871599;163;27410;-78
2023/07/14 11:25:16;;;;;;;1.82;1.30;;;36.60;28.20;;;;;;871953;163;26370;-78
2023/07/14 11:27:55;;;;;;;1.65;1.10;;;36.40;28.00;;;;;;871548;161;27895;-78
2023/07/14 11:30:21;;;;;;;2.95;1.20;;;36.30;28.30;;;;;;871132;161;26420;-78
2023/07/14 11:32:47;;;;;;;1.02;0.95;;;36.20;28.30;;;;;;870872;161;27499;-77
2023/07/14 11:35:17;;;;;;;1.27;1.17;;;36.10;28.40;;;;;;871508;161;27597;-77
2023/07/14 11:37:43;;;;;;;1.75;1.12;;;35.90;28.40;;;;;;871910;162;27459;-77
2023/07/14 11:40:20;;;;;;;3.27;1.10;;;35.70;28.50;;;;;;872833;160;27471;-77
2023/07/14 11:42:42;;;;;;;1.30;1.00;;;35.60;28.80;;;;;;873508;160;27417;-77
2023/07/14 11:45:17;;;;;;;3.12;1.27;;;35.40;28.80;;;;;;872608;160;28022;-77
2023/07/14 11:47:44;;;;;;;1.40;1.30;;;35.20;28.90;;;;;;874308;162;27344;-77
2023/07/14 11:50:19;;;;;;;1.75;1.30;;;35.00;29.00;;;;;;874232;160;27519;-77
2023/07/14 11:53:03;;;;;;;1.30;0.90;;;34.90;29.20;;;;;;872226;160;27581;-77
2023/07/14 11:55:30;;;;;;;1.27;1.17;;;34.70;29.30;;;;;;869133;161;27427;-77
2023/07/14 11:58:18;;;;;;;1.55;1.10;;;34.50;29.30;;;;;;873396;162;27530;-77
2023/07/14 12:00:45;;;;;;;2.70;1.10;;;34.30;29.40;;;;;;874366;162;27421;-77
2023/07/14 12:03:29;;;;;;;1.90;1.17;;;34.10;29.60;;;;;;873512;163;27491;-77
2023/07/14 12:06:21;;;;;;;1.80;0.90;;;34.00;29.80;;;;;;870216;160;27451;-77
2023/07/14 12:08:59;;;;;;;1.15;1.00;;;33.80;29.80;;;;;;874296;160;27557;-77
2023/07/14 12:11:29;;;;;;;2.37;1.00;;;33.70;29.80;;;;;;871839;163;27474;-77
2023/07/14 12:13:55;;;;;;;3.05;1.12;;;33.50;29.80;;;;;;874363;161;27510;-77
2023/07/14 12:16:25;;;;;;;1.98;1.05;;;33.50;30.00;;;;;;874171;162;27452;-77
2023/07/14 12:18:57;;;;;;;1.05;1.02;;;33.40;30.10;;;;;;873559;160;27467;-77
2023/07/14 12:21:26;;;;;;;2.87;1.40;;;33.30;30.20;;;;;;873893;160;27412;-78
2023/07/14 12:23:53;;;;;;;1.00;1.00;;;33.30;30.40;;;;;;873921;160;27422;-78
2023/07/14 12:26:22;;;;;;;3.87;1.02;;;33.30;30.60;;;;;;874108;162;27463;-78
2023/07/14 12:28:49;;;;;;;1.47;0.90;;;33.40;30.60;;;;;;873418;162;28022;-78
2023/07/14 12:31:16;;;;;;;1.42;1.05;;;33.60;30.60;;;;;;874946;162;27423;-77
2023/07/14 12:33:42;;;;;;;1.42;1.10;;;33.70;30.70;;;;;;873940;162;27534;-77
2023/07/14 12:36:18;;;;;;;1.57;1.20;;;33.90;30.60;;;;;;873955;161;27474;-78
2023/07/14 12:38:48;;;;;;;1.05;0.80;;;34.00;30.60;;;;;;874307;162;27611;-78
2023/07/14 12:41:16;;;;;;;1.95;0.98;;;34.20;30.60;;;;;;872707;161;27409;-78
2023/07/14 12:43:44;;;;;;;1.20;1.10;;;34.30;30.50;;;;;;873000;161;27413;-78
2023/07/14 12:46:28;;;;;;;1.42;1.02;;;34.50;30.40;;;;;;873162;161;27557;-79
2023/07/14 12:49:03;;;;;;;3.80;1.10;;;34.60;30.30;;;;;;872561;162;27551;-78
2023/07/14 12:51:30;;;;;;;2.87;1.20;;;34.60;30.00;;;;;;872618;161;27386;-78
2023/07/14 12:53:57;;;;;;;1.25;1.10;;;34.70;30.00;;;;;;872421;161;27436;-78